sensor_id;sensor_type;location;lat;lon;timestamp;pressure;altitude;pressure_sealevel;temperature;humidity
37078;BME280;22989;55.998;37.212;2022-07-18T00:02:23;98972.06;;;14.96;77.14
37078;BME280;22989;55.998;37.212;2022-07-18T00:04:49;98976.44;;;14.92;77.17
37078;BME280;22989;55.998;37.212;2022-07-18T00:07:15;98976.53;;;14.88;76.86
37078;BME280;22989;55.998;37.212;2022-07-18T00:09:42;98978.41;;;14.83;76.88
37078;BME280;22989;55.998;37.212;2022-07-18T00:12:09;98975.88;;;14.78;76.46
37078;BME280;22989;55.998;37.212;2022-07-18T00:14:36;98978.56;;;14.75;76.73
37078;BME280;22989;55.998;37.212;2022-07-18T00:17:03;98982.88;;;14.74;76.13
37078;BME280;22989;55.998;37.212;2022-07-18T00:19:29;98979.38;;;14.75;76.33
37078;BME280;22989;55.998;37.212;2022-07-18T00:21:55;98978.47;;;14.78;76.83
37078;BME280;22989;55.998;37.212;2022-07-18T00:24:21;98979.34;;;14.79;77.13
37078;BME280;22989;55.998;37.212;2022-07-18T00:26:46;98978.44;;;14.81;77.19
37078;BME280;22989;55.998;37.212;2022-07-18T00:29:12;98978.34;;;14.84;77.40
37078;BME280;22989;55.998;37.212;2022-07-18T00:31:38;98972.25;;;14.87;77.77
37078;BME280;22989;55.998;37.212;2022-07-18T00:34:04;98974.81;;;14.88;77.81
37078;BME280;22989;55.998;37.212;2022-07-18T00:36:30;98973.94;;;14.89;78.06
37078;BME280;22989;55.998;37.212;2022-07-18T00:38:57;98968.75;;;14.89;77.90
37078;BME280;22989;55.998;37.212;2022-07-18T00:41:23;98971.34;;;14.89;77.75
37078;BME280;22989;55.998;37.212;2022-07-18T00:43:49;98969.63;;;14.88;77.28
37078;BME280;22989;55.998;37.212;2022-07-18T00:46:15;98965.34;;;14.87;76.95
37078;BME280;22989;55.998;37.212;2022-07-18T00:48:42;98965.34;;;14.87;76.81
37078;BME280;22989;55.998;37.212;2022-07-18T00:51:09;98961.09;;;14.83;76.48
37078;BME280;22989;55.998;37.212;2022-07-18T00:53:35;98957.75;;;14.78;76.42
37078;BME280;22989;55.998;37.212;2022-07-18T00:56:02;98957.78;;;14.76;76.64
37078;BME280;22989;55.998;37.212;2022-07-18T00:58:28;98961.31;;;14.74;76.58
37078;BME280;22989;55.998;37.212;2022-07-18T01:00:55;98962.19;;;14.73;76.56
37078;BME280;22989;55.998;37.212;2022-07-18T01:03:39;98961.34;;;14.72;76.72
37078;BME280;22989;55.998;37.212;2022-07-18T01:06:05;98969.03;;;14.75;76.71
37078;BME280;22989;55.998;37.212;2022-07-18T01:08:30;98958.72;;;14.74;76.39
37078;BME280;22989;55.998;37.212;2022-07-18T01:10:58;98963.97;;;14.71;76.29
37078;BME280;22989;55.998;37.212;2022-07-18T01:13:24;98964.88;;;14.68;76.10
37078;BME280;22989;55.998;37.212;2022-07-18T01:15:50;98965.72;;;14.69;76.16
37078;BME280;22989;55.998;37.212;2022-07-18T01:18:16;98964.84;;;14.70;76.30
37078;BME280;22989;55.998;37.212;2022-07-18T01:20:42;98959.63;;;14.71;76.14
37078;BME280;22989;55.998;37.212;2022-07-18T01:23:07;98964.78;;;14.73;76.29
37078;BME280;22989;55.998;37.212;2022-07-18T01:25:33;98963.09;;;14.72;76.26
37078;BME280;22989;55.998;37.212;2022-07-18T01:27:59;98962.16;;;14.74;76.22
37078;BME280;22989;55.998;37.212;2022-07-18T01:30:26;98955.28;;;14.73;76.04
37078;BME280;22989;55.998;37.212;2022-07-18T01:32:59;98957.88;;;14.73;75.78
37078;BME280;22989;55.998;37.212;2022-07-18T01:35:26;98954.41;;;14.73;75.98
37078;BME280;22989;55.998;37.212;2022-07-18T01:37:53;98957.00;;;14.74;75.87
37078;BME280;22989;55.998;37.212;2022-07-18T01:40:19;98958.72;;;14.74;75.71
37078;BME280;22989;55.998;37.212;2022-07-18T01:42:45;98950.03;;;14.76;75.73
37078;BME280;22989;55.998;37.212;2022-07-18T01:45:10;98942.22;;;14.78;75.83
37078;BME280;22989;55.998;37.212;2022-07-18T01:47:36;98953.41;;;14.80;75.70
37078;BME280;22989;55.998;37.212;2022-07-18T01:50:02;98944.69;;;14.84;75.61
37078;BME280;22989;55.998;37.212;2022-07-18T01:52:28;98937.78;;;14.83;75.49
37078;BME280;22989;55.998;37.212;2022-07-18T01:54:54;98944.69;;;14.84;75.53
37078;BME280;22989;55.998;37.212;2022-07-18T01:57:20;98942.91;;;14.86;75.67
37078;BME280;22989;55.998;37.212;2022-07-18T01:59:45;98954.94;;;14.89;75.66
37078;BME280;22989;55.998;37.212;2022-07-18T02:02:11;98958.47;;;14.85;75.13
37078;BME280;22989;55.998;37.212;2022-07-18T02:04:37;98956.75;;;14.85;74.66
37078;BME280;22989;55.998;37.212;2022-07-18T02:07:21;98955.81;;;14.88;74.42
37078;BME280;22989;55.998;37.212;2022-07-18T02:09:47;98957.47;;;14.90;74.36
37078;BME280;22989;55.998;37.212;2022-07-18T02:12:13;98956.53;;;14.96;74.30
37078;BME280;22989;55.998;37.212;2022-07-18T02:14:39;98949.47;;;15.01;74.09
37078;BME280;22989;55.998;37.212;2022-07-18T02:17:04;98958.00;;;15.06;74.68
37078;BME280;22989;55.998;37.212;2022-07-18T02:19:30;98966.56;;;15.10;74.85
37078;BME280;22989;55.998;37.212;2022-07-18T02:21:56;98959.53;;;15.15;74.94
37078;BME280;22989;55.998;37.212;2022-07-18T02:24:22;98961.16;;;15.19;74.86
37078;BME280;22989;55.998;37.212;2022-07-18T02:26:48;98965.41;;;15.23;74.40
37078;BME280;22989;55.998;37.212;2022-07-18T02:29:13;98956.63;;;15.29;74.17
37078;BME280;22989;55.998;37.212;2022-07-18T02:31:39;98958.19;;;15.35;74.55
37078;BME280;22989;55.998;37.212;2022-07-18T02:34:06;98955.47;;;15.41;74.25
37078;BME280;22989;55.998;37.212;2022-07-18T02:36:37;98948.34;;;15.49;74.41
37078;BME280;22989;55.998;37.212;2022-07-18T02:39:04;98949.03;;;15.57;74.07
37078;BME280;22989;55.998;37.212;2022-07-18T02:41:30;98940.25;;;15.63;73.79
37078;BME280;22989;55.998;37.212;2022-07-18T02:43:55;98940.91;;;15.71;73.46
37078;BME280;22989;55.998;37.212;2022-07-18T02:46:21;98937.19;;;15.82;73.13
37078;BME280;22989;55.998;37.212;2022-07-18T02:48:47;98930.84;;;15.93;72.67
37078;BME280;22989;55.998;37.212;2022-07-18T02:51:12;98926.13;;;16.08;72.34
37078;BME280;22989;55.998;37.212;2022-07-18T02:53:38;98933.53;;;16.22;71.90
37078;BME280;22989;55.998;37.212;2022-07-18T02:56:04;98934.88;;;16.35;70.97
37078;BME280;22989;55.998;37.212;2022-07-18T02:58:30;98940.41;;;16.54;70.37
37078;BME280;22989;55.998;37.212;2022-07-18T03:00:57;98930.13;;;16.80;70.08
37078;BME280;22989;55.998;37.212;2022-07-18T03:03:23;98925.13;;;17.03;69.20
37078;BME280;22989;55.998;37.212;2022-07-18T03:05:49;98930.41;;;17.28;67.97
37078;BME280;22989;55.998;37.212;2022-07-18T03:08:15;98925.31;;;17.51;66.94
37078;BME280;22989;55.998;37.212;2022-07-18T03:10:40;98919.38;;;17.74;65.77
37078;BME280;22989;55.998;37.212;2022-07-18T03:13:06;98922.72;;;18.03;64.86
37078;BME280;22989;55.998;37.212;2022-07-18T03:15:32;98926.19;;;18.27;64.26
37078;BME280;22989;55.998;37.212;2022-07-18T03:17:57;98924.63;;;18.47;63.66
37078;BME280;22989;55.998;37.212;2022-07-18T03:20:23;98927.53;;;18.61;63.08
37078;BME280;22989;55.998;37.212;2022-07-18T03:22:49;98926.44;;;18.68;62.23
37078;BME280;22989;55.998;37.212;2022-07-18T03:25:14;98920.34;;;18.68;62.11
37078;BME280;22989;55.998;37.212;2022-07-18T03:27:40;98923.06;;;18.65;62.28
37078;BME280;22989;55.998;37.212;2022-07-18T03:30:06;98924.16;;;18.59;62.11
37078;BME280;22989;55.998;37.212;2022-07-18T03:32:32;98921.56;;;18.59;61.98
37078;BME280;22989;55.998;37.212;2022-07-18T03:34:58;98924.41;;;19.21;61.51
37078;BME280;22989;55.998;37.212;2022-07-18T03:37:23;98914.03;;;21.18;57.80
37078;BME280;22989;55.998;37.212;2022-07-18T03:39:49;98908.75;;;22.40;53.99
37078;BME280;22989;55.998;37.212;2022-07-18T03:42:15;98911.28;;;22.42;52.83
37078;BME280;22989;55.998;37.212;2022-07-18T03:44:41;98911.16;;;21.76;52.70
37078;BME280;22989;55.998;37.212;2022-07-18T03:47:06;98923.03;;;21.12;54.05
37078;BME280;22989;55.998;37.212;2022-07-18T03:49:32;98918.91;;;20.51;55.73
37078;BME280;22989;55.998;37.212;2022-07-18T03:51:58;98923.63;;;20.03;56.35
37078;BME280;22989;55.998;37.212;2022-07-18T03:54:24;98932.91;;;19.69;57.12
37078;BME280;22989;55.998;37.212;2022-07-18T03:56:50;98926.38;;;19.36;57.97
37078;BME280;22989;55.998;37.212;2022-07-18T03:59:16;98934.47;;;19.08;58.69
37078;BME280;22989;55.998;37.212;2022-07-18T04:01:42;98932.75;;;18.85;59.51
37078;BME280;22989;55.998;37.212;2022-07-18T04:04:07;98931.03;;;18.61;59.46
37078;BME280;22989;55.998;37.212;2022-07-18T04:06:33;98936.97;;;18.41;59.67
37078;BME280;22989;55.998;37.212;2022-07-18T04:08:59;98940.19;;;18.24;60.29
37078;BME280;22989;55.998;37.212;2022-07-18T04:11:25;98937.53;;;18.01;60.08
37078;BME280;22989;55.998;37.212;2022-07-18T04:13:52;98940.19;;;17.74;60.80
37078;BME280;22989;55.998;37.212;2022-07-18T04:16:17;98930.75;;;17.70;62.14
37078;BME280;22989;55.998;37.212;2022-07-18T04:18:43;98934.94;;;17.75;62.77
37078;BME280;22989;55.998;37.212;2022-07-18T04:21:09;98933.28;;;17.73;62.43
37078;BME280;22989;55.998;37.212;2022-07-18T04:23:35;98938.84;;;17.62;62.30
37078;BME280;22989;55.998;37.212;2022-07-18T04:26:01;98934.72;;;17.55;62.83
37078;BME280;22989;55.998;37.212;2022-07-18T04:28:29;98939.81;;;17.33;63.40
37078;BME280;22989;55.998;37.212;2022-07-18T04:30:55;98936.38;;;17.31;64.42
37078;BME280;22989;55.998;37.212;2022-07-18T04:33:21;98943.13;;;17.36;64.76
37078;BME280;22989;55.998;37.212;2022-07-18T04:35:48;98941.59;;;17.31;63.90
37078;BME280;22989;55.998;37.212;2022-07-18T04:38:14;98938.72;;;17.11;63.76
37078;BME280;22989;55.998;37.212;2022-07-18T04:40:40;98941.16;;;17.18;64.14
37078;BME280;22989;55.998;37.212;2022-07-18T04:43:06;98940.59;;;17.35;64.08
37078;BME280;22989;55.998;37.212;2022-07-18T04:45:34;98936.53;;;17.53;63.77
37078;BME280;22989;55.998;37.212;2022-07-18T04:48:01;98935.00;;;17.72;63.67
37078;BME280;22989;55.998;37.212;2022-07-18T04:50:27;98931.66;;;17.96;63.43
37078;BME280;22989;55.998;37.212;2022-07-18T04:52:56;98929.19;;;18.16;63.02
37078;BME280;22989;55.998;37.212;2022-07-18T04:55:22;98929.50;;;18.32;62.72
37078;BME280;22989;55.998;37.212;2022-07-18T04:57:49;98927.19;;;18.48;62.55
37078;BME280;22989;55.998;37.212;2022-07-18T05:00:18;98929.25;;;18.62;61.96
37078;BME280;22989;55.998;37.212;2022-07-18T05:02:46;98923.56;;;18.74;61.34
37078;BME280;22989;55.998;37.212;2022-07-18T05:05:13;98926.63;;;18.86;61.02
37078;BME280;22989;55.998;37.212;2022-07-18T05:07:41;98926.09;;;19.00;60.94
37078;BME280;22989;55.998;37.212;2022-07-18T05:10:09;98929.03;;;19.14;60.64
37078;BME280;22989;55.998;37.212;2022-07-18T05:12:36;98922.53;;;19.24;60.38
37078;BME280;22989;55.998;37.212;2022-07-18T05:15:05;98932.41;;;19.38;60.29
37078;BME280;22989;55.998;37.212;2022-07-18T05:17:32;98929.09;;;19.55;59.52
37078;BME280;22989;55.998;37.212;2022-07-18T05:19:58;98933.16;;;19.83;58.97
37078;BME280;22989;55.998;37.212;2022-07-18T05:22:23;98924.94;;;20.13;58.01
37078;BME280;22989;55.998;37.212;2022-07-18T05:24:50;98925.94;;;20.49;57.21
37078;BME280;22989;55.998;37.212;2022-07-18T05:27:16;98920.88;;;20.84;56.36
37078;BME280;22989;55.998;37.212;2022-07-18T05:29:41;98917.13;;;21.08;54.85
37078;BME280;22989;55.998;37.212;2022-07-18T05:32:08;98923.13;;;21.28;54.20
37078;BME280;22989;55.998;37.212;2022-07-18T05:34:34;98919.78;;;21.43;53.98
37078;BME280;22989;55.998;37.212;2022-07-18T05:37:00;98928.41;;;21.63;53.74
37078;BME280;22989;55.998;37.212;2022-07-18T05:39:26;98925.16;;;21.75;53.05
37078;BME280;22989;55.998;37.212;2022-07-18T05:41:52;98928.19;;;21.85;52.69
37078;BME280;22989;55.998;37.212;2022-07-18T05:44:18;98930.47;;;21.91;52.32
37078;BME280;22989;55.998;37.212;2022-07-18T05:46:46;98936.97;;;21.84;51.87
37078;BME280;22989;55.998;37.212;2022-07-18T05:49:12;98934.88;;;21.73;52.47
37078;BME280;22989;55.998;37.212;2022-07-18T05:51:38;98940.63;;;21.45;52.43
37078;BME280;22989;55.998;37.212;2022-07-18T05:54:04;98939.25;;;20.82;53.04
37078;BME280;22989;55.998;37.212;2022-07-18T05:56:30;98936.97;;;20.55;54.49
37078;BME280;22989;55.998;37.212;2022-07-18T05:58:56;98938.09;;;20.50;54.63
37078;BME280;22989;55.998;37.212;2022-07-18T06:01:21;98936.34;;;20.50;54.80
37078;BME280;22989;55.998;37.212;2022-07-18T06:03:47;98926.38;;;20.58;54.97
37078;BME280;22989;55.998;37.212;2022-07-18T06:06:14;98933.69;;;20.71;55.12
37078;BME280;22989;55.998;37.212;2022-07-18T06:08:40;98925.28;;;20.83;55.16
37078;BME280;22989;55.998;37.212;2022-07-18T06:11:07;98930.75;;;20.96;54.97
37078;BME280;22989;55.998;37.212;2022-07-18T06:13:35;98926.78;;;21.06;54.48
37078;BME280;22989;55.998;37.212;2022-07-18T06:16:02;98919.25;;;21.18;53.94
37078;BME280;22989;55.998;37.212;2022-07-18T06:18:28;98917.25;;;21.23;53.63
37078;BME280;22989;55.998;37.212;2022-07-18T06:20:53;98920.75;;;21.23;53.68
37078;BME280;22989;55.998;37.212;2022-07-18T06:23:19;98918.25;;;21.20;53.07
37078;BME280;22989;55.998;37.212;2022-07-18T06:25:45;98915.44;;;21.25;53.45
37078;BME280;22989;55.998;37.212;2022-07-18T06:28:11;98910.66;;;21.33;53.42
37078;BME280;22989;55.998;37.212;2022-07-18T06:30:36;98907.50;;;21.44;52.83
37078;BME280;22989;55.998;37.212;2022-07-18T06:33:02;98904.31;;;21.56;52.19
37078;BME280;22989;55.998;37.212;2022-07-18T06:35:31;98904.09;;;21.61;51.37
37078;BME280;22989;55.998;37.212;2022-07-18T06:37:57;98904.22;;;21.58;51.03
37078;BME280;22989;55.998;37.212;2022-07-18T06:40:23;98902.22;;;21.63;50.88
37078;BME280;22989;55.998;37.212;2022-07-18T06:42:51;98906.84;;;21.75;51.16
37078;BME280;22989;55.998;37.212;2022-07-18T06:45:18;98905.53;;;21.84;50.77
37078;BME280;22989;55.998;37.212;2022-07-18T06:47:44;98898.91;;;21.94;50.79
37078;BME280;22989;55.998;37.212;2022-07-18T06:50:12;98908.72;;;22.07;50.96
37078;BME280;22989;55.998;37.212;2022-07-18T06:52:39;98893.34;;;22.17;51.33
37078;BME280;22989;55.998;37.212;2022-07-18T06:55:06;98895.91;;;22.34;51.06
37078;BME280;22989;55.998;37.212;2022-07-18T06:57:32;98886.78;;;22.59;50.78
37078;BME280;22989;55.998;37.212;2022-07-18T06:59:58;98888.78;;;22.86;49.65
37078;BME280;22989;55.998;37.212;2022-07-18T07:02:24;98894.44;;;23.10;49.31
37078;BME280;22989;55.998;37.212;2022-07-18T07:04:50;98894.44;;;23.26;48.73
37078;BME280;22989;55.998;37.212;2022-07-18T07:07:16;98890.06;;;23.41;47.84
37078;BME280;22989;55.998;37.212;2022-07-18T07:09:42;98894.63;;;23.68;46.25
37078;BME280;22989;55.998;37.212;2022-07-18T07:12:08;98889.16;;;24.01;44.93
37078;BME280;22989;55.998;37.212;2022-07-18T07:14:36;98891.56;;;24.33;43.68
37078;BME280;22989;55.998;37.212;2022-07-18T07:17:02;98888.91;;;24.48;42.12
37078;BME280;22989;55.998;37.212;2022-07-18T07:19:28;98886.84;;;24.67;42.43
37078;BME280;22989;55.998;37.212;2022-07-18T07:21:54;98887.97;;;25.18;41.21
37078;BME280;22989;55.998;37.212;2022-07-18T07:24:20;98884.50;;;25.83;39.42
37078;BME280;22989;55.998;37.212;2022-07-18T07:26:46;98889.44;;;25.09;38.82
37078;BME280;22989;55.998;37.212;2022-07-18T07:29:12;98894.38;;;24.44;40.54
37078;BME280;22989;55.998;37.212;2022-07-18T07:31:38;98894.63;;;23.82;41.37
37078;BME280;22989;55.998;37.212;2022-07-18T07:34:04;98900.75;;;23.22;41.76
37078;BME280;22989;55.998;37.212;2022-07-18T07:36:29;98901.13;;;22.52;43.17
37078;BME280;22989;55.998;37.212;2022-07-18T07:38:55;98897.38;;;22.40;44.02
37078;BME280;22989;55.998;37.212;2022-07-18T07:41:22;98890.25;;;22.26;43.64
37078;BME280;22989;55.998;37.212;2022-07-18T07:43:48;98892.44;;;21.84;45.03
37078;BME280;22989;55.998;37.212;2022-07-18T07:46:13;98890.91;;;21.62;45.97
37078;BME280;22989;55.998;37.212;2022-07-18T07:48:39;98882.63;;;21.54;46.51
37078;BME280;22989;55.998;37.212;2022-07-18T07:51:05;98875.13;;;21.64;46.79
37078;BME280;22989;55.998;37.212;2022-07-18T07:53:31;98872.22;;;21.70;46.57
37078;BME280;22989;55.998;37.212;2022-07-18T07:55:57;98875.03;;;21.48;47.69
37078;BME280;22989;55.998;37.212;2022-07-18T07:58:23;98879.44;;;21.48;47.75
37078;BME280;22989;55.998;37.212;2022-07-18T08:00:49;98871.34;;;21.52;48.04
37078;BME280;22989;55.998;37.212;2022-07-18T08:03:15;98874.66;;;22.07;47.42
37078;BME280;22989;55.998;37.212;2022-07-18T08:05:49;98875.25;;;22.45;46.67
37078;BME280;22989;55.998;37.212;2022-07-18T08:08:15;98878.91;;;22.43;46.78
37078;BME280;22989;55.998;37.212;2022-07-18T08:10:41;98882.69;;;22.20;46.64
37078;BME280;22989;55.998;37.212;2022-07-18T08:13:08;98872.75;;;22.10;46.60
37078;BME280;22989;55.998;37.212;2022-07-18T08:15:34;98866.31;;;22.16;47.01
37078;BME280;22989;55.998;37.212;2022-07-18T08:18:01;98861.28;;;22.45;46.48
37078;BME280;22989;55.998;37.212;2022-07-18T08:20:27;98854.81;;;22.99;46.47
37078;BME280;22989;55.998;37.212;2022-07-18T08:22:56;98848.22;;;23.38;44.99
37078;BME280;22989;55.998;37.212;2022-07-18T08:25:23;98847.50;;;23.50;44.80
37078;BME280;22989;55.998;37.212;2022-07-18T08:27:49;98840.00;;;23.73;44.33
37078;BME280;22989;55.998;37.212;2022-07-18T08:30:15;98842.13;;;24.11;43.22
37078;BME280;22989;55.998;37.212;2022-07-18T08:32:41;98829.91;;;24.52;43.06
37078;BME280;22989;55.998;37.212;2022-07-18T08:35:07;98828.44;;;25.02;39.94
37078;BME280;22989;55.998;37.212;2022-07-18T08:37:33;98827.28;;;25.46;39.65
37078;BME280;22989;55.998;37.212;2022-07-18T08:39:59;98828.56;;;25.13;37.36
37078;BME280;22989;55.998;37.212;2022-07-18T08:42:26;98832.22;;;24.29;39.20
37078;BME280;22989;55.998;37.212;2022-07-18T08:44:55;98838.19;;;23.89;39.43
37078;BME280;22989;55.998;37.212;2022-07-18T08:47:21;98834.19;;;23.82;40.47
37078;BME280;22989;55.998;37.212;2022-07-18T08:49:48;98825.69;;;23.93;39.97
37078;BME280;22989;55.998;37.212;2022-07-18T08:52:15;98824.19;;;24.03;40.06
37078;BME280;22989;55.998;37.212;2022-07-18T08:54:41;98823.72;;;23.96;39.70
37078;BME280;22989;55.998;37.212;2022-07-18T08:57:07;98826.41;;;23.66;40.08
37078;BME280;22989;55.998;37.212;2022-07-18T08:59:33;98825.31;;;23.70;40.73
37078;BME280;22989;55.998;37.212;2022-07-18T09:01:58;98821.75;;;24.00;40.89
37078;BME280;22989;55.998;37.212;2022-07-18T09:04:38;98822.84;;;24.25;40.15
37078;BME280;22989;55.998;37.212;2022-07-18T09:07:07;98825.31;;;23.70;39.50
37078;BME280;22989;55.998;37.212;2022-07-18T09:09:35;98824.31;;;23.12;40.02
37078;BME280;22989;55.998;37.212;2022-07-18T09:12:07;98816.69;;;22.77;41.13
37078;BME280;22989;55.998;37.212;2022-07-18T09:14:42;98817.00;;;22.40;41.69
37078;BME280;22989;55.998;37.212;2022-07-18T09:17:10;98820.59;;;22.22;42.36
37078;BME280;22989;55.998;37.212;2022-07-18T09:19:38;98825.13;;;22.02;42.78
37078;BME280;22989;55.998;37.212;2022-07-18T09:24:55;98808.13;;;22.43;43.15
37078;BME280;22989;55.998;37.212;2022-07-18T09:27:26;98812.53;;;22.89;40.82
37078;BME280;22989;55.998;37.212;2022-07-18T09:30:29;98807.34;;;23.19;39.95
37078;BME280;22989;55.998;37.212;2022-07-18T09:33:06;98803.50;;;23.09;39.20
37078;BME280;22989;55.998;37.212;2022-07-18T09:35:42;98801.97;;;22.74;39.90
37078;BME280;22989;55.998;37.212;2022-07-18T09:38:10;98799.16;;;22.47;40.38
37078;BME280;22989;55.998;37.212;2022-07-18T09:40:41;98802.69;;;22.46;41.41
37078;BME280;22989;55.998;37.212;2022-07-18T09:43:10;98806.00;;;22.50;40.43
37078;BME280;22989;55.998;37.212;2022-07-18T09:45:39;98803.09;;;22.54;40.74
37078;BME280;22989;55.998;37.212;2022-07-18T09:48:08;98790.16;;;22.67;40.08
37078;BME280;22989;55.998;37.212;2022-07-18T09:50:40;98789.75;;;22.59;39.35
37078;BME280;22989;55.998;37.212;2022-07-18T09:53:17;98784.41;;;22.28;40.09
37078;BME280;22989;55.998;37.212;2022-07-18T09:55:45;98789.25;;;22.20;39.55
37078;BME280;22989;55.998;37.212;2022-07-18T09:58:15;98781.13;;;22.41;39.58
37078;BME280;22989;55.998;37.212;2022-07-18T10:00:41;98780.25;;;22.72;39.19
37078;BME280;22989;55.998;37.212;2022-07-18T10:03:08;98780.66;;;22.81;39.71
37078;BME280;22989;55.998;37.212;2022-07-18T10:05:36;98776.03;;;22.70;39.46
37078;BME280;22989;55.998;37.212;2022-07-18T10:08:06;98778.25;;;22.92;37.70
37078;BME280;22989;55.998;37.212;2022-07-18T10:10:33;98769.06;;;23.15;37.81
37078;BME280;22989;55.998;37.212;2022-07-18T10:13:00;98771.72;;;23.29;38.41
37078;BME280;22989;55.998;37.212;2022-07-18T10:15:30;98778.06;;;23.25;38.01
37078;BME280;22989;55.998;37.212;2022-07-18T10:17:57;98773.06;;;23.37;37.68
37078;BME280;22989;55.998;37.212;2022-07-18T10:20:32;98782.13;;;23.45;37.08
37078;BME280;22989;55.998;37.212;2022-07-18T10:23:02;98776.84;;;23.31;36.85
37078;BME280;22989;55.998;37.212;2022-07-18T10:25:32;98777.53;;;23.04;37.06
37078;BME280;22989;55.998;37.212;2022-07-18T10:28:04;98770.13;;;22.96;37.58
37078;BME280;22989;55.998;37.212;2022-07-18T10:30:36;98773.16;;;23.05;36.99
37078;BME280;22989;55.998;37.212;2022-07-18T10:33:03;98774.03;;;23.20;37.66
37078;BME280;22989;55.998;37.212;2022-07-18T10:35:58;98777.53;;;23.35;39.15
37078;BME280;22989;55.998;37.212;2022-07-18T10:38:24;98782.31;;;23.28;39.58
37078;BME280;22989;55.998;37.212;2022-07-18T10:41:08;98777.16;;;23.26;40.46
37078;BME280;22989;55.998;37.212;2022-07-18T10:43:37;98775.31;;;23.12;40.80
37078;BME280;22989;55.998;37.212;2022-07-18T10:46:04;98783.44;;;23.08;40.91
37078;BME280;22989;55.998;37.212;2022-07-18T10:51:08;98792.03;;;22.95;41.10
37078;BME280;22989;55.998;37.212;2022-07-18T10:54:06;98792.50;;;22.72;41.91
37078;BME280;22989;55.998;37.212;2022-07-18T10:59:19;98786.94;;;21.98;43.75
37078;BME280;22989;55.998;37.212;2022-07-18T11:01:54;98793.97;;;21.64;44.79
37078;BME280;22989;55.998;37.212;2022-07-18T11:04:28;98788.47;;;21.35;45.71
37078;BME280;22989;55.998;37.212;2022-07-18T11:07:08;98802.59;;;20.96;47.18
37078;BME280;22989;55.998;37.212;2022-07-18T11:09:45;98802.53;;;20.61;49.03
37078;BME280;22989;55.998;37.212;2022-07-18T11:12:26;98806.59;;;20.30;49.92
37078;BME280;22989;55.998;37.212;2022-07-18T11:15:06;98804.16;;;19.89;50.27
37078;BME280;22989;55.998;37.212;2022-07-18T11:18:01;98811.00;;;19.29;51.93
37078;BME280;22989;55.998;37.212;2022-07-18T11:25:49;98817.75;;;18.48;54.05
37078;BME280;22989;55.998;37.212;2022-07-18T11:28:16;98820.53;;;18.21;54.27
37078;BME280;22989;55.998;37.212;2022-07-18T11:30:43;98816.41;;;17.92;55.16
37078;BME280;22989;55.998;37.212;2022-07-18T11:33:24;98826.28;;;17.82;56.86
37078;BME280;22989;55.998;37.212;2022-07-18T11:35:52;98821.47;;;17.70;56.63
37078;BME280;22989;55.998;37.212;2022-07-18T11:38:18;98824.47;;;17.59;57.75
37078;BME280;22989;55.998;37.212;2022-07-18T11:40:49;98824.47;;;17.59;58.51
37078;BME280;22989;55.998;37.212;2022-07-18T11:43:26;98820.56;;;17.47;58.51
37078;BME280;22989;55.998;37.212;2022-07-18T11:46:09;98823.50;;;17.36;58.96
37078;BME280;22989;55.998;37.212;2022-07-18T11:48:37;98811.50;;;17.32;59.29
37078;BME280;22989;55.998;37.212;2022-07-18T11:51:19;98800.22;;;17.33;59.48
37078;BME280;22989;55.998;37.212;2022-07-18T11:53:52;98801.16;;;17.05;59.91
37078;BME280;22989;55.998;37.212;2022-07-18T11:56:20;98794.91;;;16.84;60.81
37078;BME280;22989;55.998;37.212;2022-07-18T11:58:47;98796.31;;;16.66;61.61
37078;BME280;22989;55.998;37.212;2022-07-18T12:01:13;98797.72;;;16.50;62.92
37078;BME280;22989;55.998;37.212;2022-07-18T12:03:41;98790.91;;;16.46;64.08
37078;BME280;22989;55.998;37.212;2022-07-18T12:06:14;98792.56;;;16.48;65.17
37078;BME280;22989;55.998;37.212;2022-07-18T12:08:42;98787.38;;;16.48;66.00
37078;BME280;22989;55.998;37.212;2022-07-18T12:13:56;98774.06;;;17.13;66.09
37078;BME280;22989;55.998;37.212;2022-07-18T12:16:33;98768.19;;;17.56;65.16
37078;BME280;22989;55.998;37.212;2022-07-18T12:19:02;98761.09;;;18.09;63.74
37078;BME280;22989;55.998;37.212;2022-07-18T12:21:46;98757.41;;;18.59;62.90
37078;BME280;22989;55.998;37.212;2022-07-18T12:32:52;98748.47;;;21.49;54.13
37078;BME280;22989;55.998;37.212;2022-07-18T12:35:22;98739.44;;;21.72;52.86
37078;BME280;22989;55.998;37.212;2022-07-18T12:38:00;98734.22;;;22.20;52.27
37078;BME280;22989;55.998;37.212;2022-07-18T12:43:18;98742.41;;;22.30;48.79
37078;BME280;22989;55.998;37.212;2022-07-18T12:45:47;98728.19;;;22.34;48.62
37078;BME280;22989;55.998;37.212;2022-07-18T12:48:13;98731.75;;;22.49;48.08
37078;BME280;22989;55.998;37.212;2022-07-18T12:50:40;98727.75;;;22.58;46.88
37078;BME280;22989;55.998;37.212;2022-07-18T12:53:07;98731.81;;;22.63;46.65
37078;BME280;22989;55.998;37.212;2022-07-18T12:55:33;98736.72;;;22.70;46.04
37078;BME280;22989;55.998;37.212;2022-07-18T12:58:00;98736.38;;;22.60;45.58
37078;BME280;22989;55.998;37.212;2022-07-18T13:00:28;98734.84;;;22.56;44.89
37078;BME280;22989;55.998;37.212;2022-07-18T13:02:55;98737.97;;;22.62;45.31
37078;BME280;22989;55.998;37.212;2022-07-18T13:05:28;98741.78;;;22.57;44.32
37078;BME280;22989;55.998;37.212;2022-07-18T13:07:55;98754.00;;;22.42;44.73
37078;BME280;22989;55.998;37.212;2022-07-18T13:10:21;98763.28;;;22.32;45.59
37078;BME280;22989;55.998;37.212;2022-07-18T13:12:46;98764.22;;;22.31;45.85
37078;BME280;22989;55.998;37.212;2022-07-18T13:15:12;98761.88;;;22.42;45.59
37078;BME280;22989;55.998;37.212;2022-07-18T13:17:38;98765.31;;;22.42;45.08
37078;BME280;22989;55.998;37.212;2022-07-18T13:20:04;98764.38;;;22.11;44.08
37078;BME280;22989;55.998;37.212;2022-07-18T13:22:31;98760.56;;;21.85;43.07